KEEN/EEN METAR and TAF weather

Enter ICAO airport designator
Station Type Date Time Source
KEEN METAR 2018/04/27 00:56 UTC NOAA

KEEN 270056Z AUTO 18006KT 10SM BKN039 08/05 A2982 RMK AO2 SLP121 T00830050


Station Type Date Time Source
KEEN Decoded METAR 2018/04/27 00:56 UTC NOAA

Keene, Dillant-Hopkins Airport, NH, United States (KEEN) 42-54N 072-16W
Apr 26, 2018 - 08:56 PM EDT / 2018.04.27 0056 UTC
Wind: from the S (180 degrees) at 7 MPH (6 KT):0
Visibility: 10 mile(s):0
Sky conditions: mostly cloudy
Temperature: 46.9 F (8.3 C)
Dew Point: 41.0 F (5.0 C)
Relative Humidity: 79%
Pressure (altimeter): 29.82 in. Hg (1009 hPa)
ob: KEEN 270056Z AUTO 18006KT 10SM BKN039 08/05 A2982 RMK AO2 SLP121 T00830050
cycle: 1

Station Type Date Time Source
KEEN TAF UTC NOAA

Error!


Example: see airport list